РУС

ENG

 
  Pireps - S7
 

Рейс SBI6007

  • Выполнял: Dmitry Schcurov
  • Аэропорт отправления: Pulkovo Airport (ULLI)
  • Аэропорт назначения: (UUBC)
  • Тип ВС: E170 (VQ-BYA)
  • Время полёта: 01.23
  • Дата полёта: 01.08.2020
  • Маршрут: SUGIN R904 KANET B964 MANIV T576 DB B239 AJ R804 BG R811 FK R22 UK B231 KONIK A821 DOSAB
  • Статус: Одобрен

Детали полёта
Gross Revenue:
(68 load / $ 150.00 per unit
$ 10, 200.00
Fuel Cost:
(2126 fuel used @ 5.1 / unit)
$ 10, 842.60


Дополнительная информация о полёте:

Лог

Aircraft Used in flight is Embraer 170 Air Canada
12:45 Boarding
12:45 Navigation Lights ON at 90 AGL
12:45 Brakes are On
12:46 Beacon Lights ON at 90 AGL
12:46 Engine 1 Started
12:47 Engine 2 Started
12:48Flaps 1 Selected at 90ft and 2kts
12:48 Brakes are Released
12:48 Taxi Lights ON at 90 AGL
12:53 Strobe Lights ON at 90 AGL
12:53 Landing Lights ON at 90 AGL
12:53 Taxi Lights OFF at 90 AGL
12:54 You Took off @ 155 Knots and Flaps at Position 1
Departure Weather
ULLI 010930Z 02004MPS 340V070 9999 BKN031 17/09 Q1013 R10R/090060 NOSIG
12:55 Landing Gear Up @ 169 Knots and 210 Feet
12:56Flaps Retracted at 3400ft and 189kts
12:56 Landing Lights OFF at 6400 AGL
13:04 You exceeded maximum bank angle
13:11 TOC Reached
13:54 Landing Lights ON at 8590 AGL
13:58Flaps 1 Selected at 4250ft and 228kts
14:00Flaps 2 Selected at 3060ft and 181kts
14:00Flaps 3 Selected at 3040ft and 180kts
14:02Flaps 4 Selected at 2320ft and 159kts
14:02Flaps 5 Selected at 2500ft and 162kts
14:02 Landing Gear Down @ 162 Knots and 2500 Feet
14:03Flaps 6 Selected at 2130ft and 155kts
14:05 You Landed @ 128 Knots and with -250 Vertical Speed
Arrival Weather
UUBC 010930Z 23003MPS 9999 SCT062CB 17/11 Q1004 R31/CLRD60 NOSIG RMK QFE736/0982
14:07Flaps Retracted at 670ft and 3kts
14:07 Landing Lights OFF at 670 AGL
14:07 Strobe Lights OFF at 670 AGL
14:07 Taxi Lights ON at 670 AGL
14:08 Brakes are On
14:08 Taxi Lights OFF at 670 AGL
14:08 Engine 1 Stoped
14:08 Engine 2 Stoped
14:09 Beacon Lights OFF at 670 AGL
Pirep logged with S7 Tracking 1.0.0.14



Общая оценка полета : 100%




Route Map



 
 
   
 
Новости

23.01.2020 - Работа сайта!

Друзья! 
После долгого перерыва работы сайта - мы занялись его оживлением.
Были жалобы, что не работала регистрация. Теперь работает!
Будут исправляться другие моменты и функционал снова будет доступен в полном объеме.
От лица администрации сайта и компании - приносим свои извинения за неудобства!
Добро пожаловать в S7!

   
 
Авторизация






Регистрация

Восстановить пароль?

Мы в соц. сетях

      



   
 





   
 


   
 


Яндекс.Метрика

www.va-s7.ru 2011-2020
Все права защищены.



Минуточку внимания!
Мы не имеем отношения к торговым маркам "S7" и "Globus" и их представителям.
Эмблемы на сайте являются собственностью соответствующих компаний.

аэронавигационная метеорологическая и любая другая информация с данного ресурса ни в коем случае не должна использоваться для реальных полетов